Aviation Digital Data Service (ADDS)

Output produced by METARs form (0055 UTC 19 August 2019)
found at http://www.aviationweather.gov/metar/data/
 
METAR text: KSBA 182353Z 27012KT 10SM SCT280 21/14 A2989 RMK AO2 SLP122 T02060144 10217 20183 56017
Conditions at: KSBA (SANTA BARBARA , CA, US) observed 2353 UTC 18 August 2019
Temperature: 20.6°C (69°F)
Dewpoint: 14.4°C (58°F) [RH = 68%]
Pressure (altimeter): 29.89 inches Hg (1012.3 mb)
[Sea-level pressure: 1012.2 mb]
Winds: from the W (270 degrees) at 14 MPH (12 knots; 6.2 m/s)
Visibility: 10 or more miles (16+ km)
Ceiling: at least 12,000 feet AGL
Clouds: scattered clouds at 28000 feet AGL
Weather: no significant weather observed at this time

METAR text: KSBA 182253Z 26011KT 10SM FEW022 21/14 A2990 RMK AO2 SLP125 T02110144
Conditions at: KSBA (SANTA BARBARA , CA, US) observed 2253 UTC 18 August 2019
Temperature: 21.1°C (70°F)
Dewpoint: 14.4°C (58°F) [RH = 66%]
Pressure (altimeter): 29.90 inches Hg (1012.6 mb)
[Sea-level pressure: 1012.5 mb]
Winds: from the W (260 degrees) at 13 MPH (11 knots; 5.7 m/s)
Visibility: 10 or more miles (16+ km)
Ceiling: at least 12,000 feet AGL
Clouds: few clouds at 2200 feet AGL
Weather: no significant weather observed at this time

METAR text: KSBA 182153Z 27007KT 10SM FEW200 22/14 A2992 RMK AO2 SLP132 T02170139
Conditions at: KSBA (SANTA BARBARA , CA, US) observed 2153 UTC 18 August 2019
Temperature: 21.7°C (71°F)
Dewpoint: 13.9°C (57°F) [RH = 61%]
Pressure (altimeter): 29.92 inches Hg (1013.3 mb)
[Sea-level pressure: 1013.2 mb]
Winds: from the W (270 degrees) at 8 MPH (7 knots; 3.6 m/s)
Visibility: 10 or more miles (16+ km)
Ceiling: at least 12,000 feet AGL
Clouds: few clouds at 20000 feet AGL
Weather: no significant weather observed at this time

METAR text: KSBA 182053Z 26007KT 10SM SCT023 21/14 A2994 RMK AO2 SLP140 T02110144 57003
Conditions at: KSBA (SANTA BARBARA , CA, US) observed 2053 UTC 18 August 2019
Temperature: 21.1°C (70°F)
Dewpoint: 14.4°C (58°F) [RH = 66%]
Pressure (altimeter): 29.94 inches Hg (1014.0 mb)
[Sea-level pressure: 1014.0 mb]
Winds: from the W (260 degrees) at 8 MPH (7 knots; 3.6 m/s)
Visibility: 10 or more miles (16+ km)
Ceiling: at least 12,000 feet AGL
Clouds: scattered clouds at 2300 feet AGL
Weather: no significant weather observed at this time

METAR text: KSBA 182028Z 25009KT 10SM SCT023 21/14 A2994 RMK AO2 T02110144
Conditions at: KSBA (SANTA BARBARA , CA, US) observed 2028 UTC 18 August 2019
Temperature: 21.1°C (70°F)
Dewpoint: 14.4°C (58°F) [RH = 66%]
Pressure (altimeter): 29.94 inches Hg (1014.0 mb)
Winds: from the WSW (250 degrees) at 10 MPH (9 knots; 4.6 m/s)
Visibility: 10 or more miles (16+ km)
Ceiling: at least 12,000 feet AGL
Clouds: scattered clouds at 2300 feet AGL
Weather: no significant weather observed at this time

METAR text: KSBA 181953Z 25009KT 10SM BKN022 21/15 A2995 RMK AO2 SLP140 T02110150
Conditions at: KSBA (SANTA BARBARA , CA, US) observed 1953 UTC 18 August 2019
Temperature: 21.1°C (70°F)
Dewpoint: 15.0°C (59°F) [RH = 68%]
Pressure (altimeter): 29.95 inches Hg (1014.3 mb)
[Sea-level pressure: 1014.0 mb]
Winds: from the WSW (250 degrees) at 10 MPH (9 knots; 4.6 m/s)
Visibility: 10 or more miles (16+ km)
Ceiling: 2200 feet AGL
Clouds: broken clouds at 2200 feet AGL
Weather: no significant weather observed at this time

METAR text: KSBA 181853Z VRB05KT 10SM OVC022 20/15 A2995 RMK AO2 SLP143 T02000150
Conditions at: KSBA (SANTA BARBARA , CA, US) observed 1853 UTC 18 August 2019
Temperature: 20.0°C (68°F)
Dewpoint: 15.0°C (59°F) [RH = 73%]
Pressure (altimeter): 29.95 inches Hg (1014.3 mb)
[Sea-level pressure: 1014.3 mb]
Winds: variable direction winds at 6 MPH (5 knots; 2.6 m/s)
Visibility: 10 or more miles (16+ km)
Ceiling: 2200 feet AGL
Clouds: overcast cloud deck at 2200 feet AGL
Weather: no significant weather observed at this time

METAR text: KSBA 181753Z 26003KT 10SM OVC021 18/15 A2995 RMK AO2 SLP143 T01830150 10189 20156 53013
Conditions at: KSBA (SANTA BARBARA , CA, US) observed 1753 UTC 18 August 2019
Temperature: 18.3°C (65°F)
Dewpoint: 15.0°C (59°F) [RH = 81%]
Pressure (altimeter): 29.95 inches Hg (1014.3 mb)
[Sea-level pressure: 1014.3 mb]
Winds: from the W (260 degrees) at 3 MPH (3 knots; 1.5 m/s)
Visibility: 10 or more miles (16+ km)
Ceiling: 2100 feet AGL
Clouds: overcast cloud deck at 2100 feet AGL
Weather: no significant weather observed at this time

METAR text: KSBA 181653Z 22004KT 8SM OVC012 18/15 A2994 RMK AO2 SLP138 T01830150
Conditions at: KSBA (SANTA BARBARA , CA, US) observed 1653 UTC 18 August 2019
Temperature: 18.3°C (65°F)
Dewpoint: 15.0°C (59°F) [RH = 81%]
Pressure (altimeter): 29.94 inches Hg (1014.0 mb)
[Sea-level pressure: 1013.8 mb]
Winds: from the SW (220 degrees) at 5 MPH (4 knots; 2.1 m/s)
Visibility: 8 miles (13 km)
Ceiling: 1200 feet AGL
Clouds: overcast cloud deck at 1200 feet AGL
Weather: no significant weather observed at this time

METAR text: KSBA 181600Z 00000KT 8SM OVC012 18/14 A2993 RMK AO2 T01830144
Conditions at: KSBA (SANTA BARBARA , CA, US) observed 1600 UTC 18 August 2019
Temperature: 18.3°C (65°F)
Dewpoint: 14.4°C (58°F) [RH = 78%]
Pressure (altimeter): 29.93 inches Hg (1013.6 mb)
Winds: calm
Visibility: 8 miles (13 km)
Ceiling: 1200 feet AGL
Clouds: overcast cloud deck at 1200 feet AGL
Weather: no significant weather observed at this time

METAR text: KSBA 181553Z 00000KT 10SM OVC018 18/14 A2993 RMK AO2 SLP134 T01830144
Conditions at: KSBA (SANTA BARBARA , CA, US) observed 1553 UTC 18 August 2019
Temperature: 18.3°C (65°F)
Dewpoint: 14.4°C (58°F) [RH = 78%]
Pressure (altimeter): 29.93 inches Hg (1013.6 mb)
[Sea-level pressure: 1013.4 mb]
Winds: calm
Visibility: 10 or more miles (16+ km)
Ceiling: 1800 feet AGL
Clouds: overcast cloud deck at 1800 feet AGL
Weather: no significant weather observed at this time

METAR text: KSBA 181453Z 00000KT 8SM OVC018 17/15 A2992 RMK AO2 SLP131 T01720150 53010
Conditions at: KSBA (SANTA BARBARA , CA, US) observed 1453 UTC 18 August 2019
Temperature: 17.2°C (63°F)
Dewpoint: 15.0°C (59°F) [RH = 87%]
Pressure (altimeter): 29.92 inches Hg (1013.3 mb)
[Sea-level pressure: 1013.1 mb]
Winds: calm
Visibility: 8 miles (13 km)
Ceiling: 1800 feet AGL
Clouds: overcast cloud deck at 1800 feet AGL
Weather: no significant weather observed at this time

METAR text: KSBA 181353Z 00000KT 6SM BR OVC017 16/15 A2990 RMK AO2 SLP126 T01610150
Conditions at: KSBA (SANTA BARBARA , CA, US) observed 1353 UTC 18 August 2019
Temperature: 16.1°C (61°F)
Dewpoint: 15.0°C (59°F) [RH = 93%]
Pressure (altimeter): 29.90 inches Hg (1012.6 mb)
[Sea-level pressure: 1012.6 mb]
Winds: calm
Visibility: 6 miles (10 km)
Ceiling: 1700 feet AGL
Clouds: overcast cloud deck at 1700 feet AGL
Weather: BR  (mist)

METAR text: KSBA 181253Z 32003KT 6SM BR SCT007 SCT011 OVC017 16/15 A2989 RMK AO2 SLP121 T01560150
Conditions at: KSBA (SANTA BARBARA , CA, US) observed 1253 UTC 18 August 2019
Temperature: 15.6°C (60°F)
Dewpoint: 15.0°C (59°F) [RH = 96%]
Pressure (altimeter): 29.89 inches Hg (1012.3 mb)
[Sea-level pressure: 1012.1 mb]
Winds: from the NW (320 degrees) at 3 MPH (3 knots; 1.5 m/s)
Visibility: 6 miles (10 km)
Ceiling: 1700 feet AGL
Clouds: scattered clouds at 700 feet AGL
scattered clouds at 1100 feet AGL
overcast cloud deck at 1700 feet AGL
Weather: BR  (mist)

METAR text: KSBA 181153Z AUTO 27003KT 5SM BR OVC007 16/14 A2988 RMK AO2 SLP118 T01560144 10167 20139 58001
Conditions at: KSBA (SANTA BARBARA , CA, US) observed 1153 UTC 18 August 2019
Temperature: 15.6°C (60°F)
Dewpoint: 14.4°C (58°F) [RH = 93%]
Pressure (altimeter): 29.88 inches Hg (1011.9 mb)
[Sea-level pressure: 1011.8 mb]
Winds: from the W (270 degrees) at 3 MPH (3 knots; 1.5 m/s)
Visibility: 5 miles ( 8 km)
Ceiling: 700 feet AGL
Clouds: overcast cloud deck at 700 feet AGL
Weather: BR  (mist)

METAR text: KSBA 181053Z AUTO 22003KT 9SM OVC007 16/14 A2988 RMK AO2 SLP119 T01560144
Conditions at: KSBA (SANTA BARBARA , CA, US) observed 1053 UTC 18 August 2019
Temperature: 15.6°C (60°F)
Dewpoint: 14.4°C (58°F) [RH = 93%]
Pressure (altimeter): 29.88 inches Hg (1011.9 mb)
[Sea-level pressure: 1011.9 mb]
Winds: from the SW (220 degrees) at 3 MPH (3 knots; 1.5 m/s)
Visibility: 9 miles (14 km)
Ceiling: 700 feet AGL
Clouds: overcast cloud deck at 700 feet AGL
Weather: automated observation with no human augmentation;
there may or may not be significant weather present at this time

METAR text: KSBA 180953Z AUTO 00000KT 10SM OVC008 17/14 A2989 RMK AO2 SLP120 T01670144
Conditions at: KSBA (SANTA BARBARA , CA, US) observed 0953 UTC 18 August 2019
Temperature: 16.7°C (62°F)
Dewpoint: 14.4°C (58°F) [RH = 86%]
Pressure (altimeter): 29.89 inches Hg (1012.3 mb)
[Sea-level pressure: 1012.0 mb]
Winds: calm
Visibility: 10 or more miles (16+ km)
Ceiling: 800 feet AGL
Clouds: overcast cloud deck at 800 feet AGL
Weather: automated observation with no human augmentation;
there may or may not be significant weather present at this time

METAR text: KSBA 180853Z AUTO 00000KT 10SM OVC008 16/14 A2988 RMK AO2 SLP119 T01610144 50002
Conditions at: KSBA (SANTA BARBARA , CA, US) observed 0853 UTC 18 August 2019
Temperature: 16.1°C (61°F)
Dewpoint: 14.4°C (58°F) [RH = 90%]
Pressure (altimeter): 29.88 inches Hg (1011.9 mb)
[Sea-level pressure: 1011.9 mb]
Winds: calm
Visibility: 10 or more miles (16+ km)
Ceiling: 800 feet AGL
Clouds: overcast cloud deck at 800 feet AGL
Weather: automated observation with no human augmentation;
there may or may not be significant weather present at this time

METAR text: KSBA 180753Z AUTO 00000KT 10SM OVC007 16/13 A2989 RMK AO2 SLP121 T01560133 402170139
Conditions at: KSBA (SANTA BARBARA , CA, US) observed 0753 UTC 18 August 2019
Temperature: 15.6°C (60°F)
Dewpoint: 13.3°C (56°F) [RH = 86%]
Pressure (altimeter): 29.89 inches Hg (1012.3 mb)
[Sea-level pressure: 1012.1 mb]
Winds: calm
Visibility: 10 or more miles (16+ km)
Ceiling: 700 feet AGL
Clouds: overcast cloud deck at 700 feet AGL
Weather: automated observation with no human augmentation;
there may or may not be significant weather present at this time

METAR text: KSBA 180653Z AUTO 00000KT 10SM BKN007 14/12 A2988 RMK AO2 SLP117 T01440122
Conditions at: KSBA (SANTA BARBARA , CA, US) observed 0653 UTC 18 August 2019
Temperature: 14.4°C (58°F)
Dewpoint: 12.2°C (54°F) [RH = 87%]
Pressure (altimeter): 29.88 inches Hg (1011.9 mb)
[Sea-level pressure: 1011.7 mb]
Winds: calm
Visibility: 10 or more miles (16+ km)
Ceiling: 700 feet AGL
Clouds: broken clouds at 700 feet AGL
Weather: automated observation with no human augmentation;
there may or may not be significant weather present at this time

METAR text: KSBA 180650Z AUTO 00000KT 10SM BKN007 14/12 A2988 RMK AO2
Conditions at: KSBA (SANTA BARBARA , CA, US) observed 0650 UTC 18 August 2019
Temperature: 14.0°C (57°F)
Dewpoint: 12.0°C (54°F) [RH = 88%]
Pressure (altimeter): 29.88 inches Hg (1011.9 mb)
Winds: calm
Visibility: 10 or more miles (16+ km)
Ceiling: 700 feet AGL
Clouds: broken clouds at 700 feet AGL
Weather: automated observation with no human augmentation;
there may or may not be significant weather present at this time

METAR text: KSBA 180636Z AUTO 00000KT 10SM FEW007 14/13 A2988 RMK AO2 T01390128
Conditions at: KSBA (SANTA BARBARA , CA, US) observed 0636 UTC 18 August 2019
Temperature: 13.9°C (57°F)
Dewpoint: 12.8°C (55°F) [RH = 93%]
Pressure (altimeter): 29.88 inches Hg (1011.9 mb)
Winds: calm
Visibility: 10 or more miles (16+ km)
Ceiling: at least 12,000 feet AGL
Clouds: few clouds at 700 feet AGL
Weather: automated observation with no human augmentation;
there may or may not be significant weather present at this time

METAR text: KSBA 180553Z AUTO 00000KT 10SM CLR 16/13 A2987 RMK AO2 SLP114 T01560133 10206 20150 51009
Conditions at: KSBA (SANTA BARBARA , CA, US) observed 0553 UTC 18 August 2019
Temperature: 15.6°C (60°F)
Dewpoint: 13.3°C (56°F) [RH = 86%]
Pressure (altimeter): 29.87 inches Hg (1011.6 mb)
[Sea-level pressure: 1011.4 mb]
Winds: calm
Visibility: 10 or more miles (16+ km)
Ceiling: at least 12,000 feet AGL
Clouds: sky clear below 12,000 feet AGL
Weather: automated observation with no human augmentation;
there may or may not be significant weather present at this time

METAR text: KSBA 180453Z 26004KT 10SM CLR 16/14 A2987 RMK AO2 SLP113 T01560144
Conditions at: KSBA (SANTA BARBARA , CA, US) observed 0453 UTC 18 August 2019
Temperature: 15.6°C (60°F)
Dewpoint: 14.4°C (58°F) [RH = 93%]
Pressure (altimeter): 29.87 inches Hg (1011.6 mb)
[Sea-level pressure: 1011.3 mb]
Winds: from the W (260 degrees) at 5 MPH (4 knots; 2.1 m/s)
Visibility: 10 or more miles (16+ km)
Ceiling: at least 12,000 feet AGL
Clouds: sky clear below 12,000 feet AGL
Weather: no significant weather observed at this time

METAR text: KSBA 180353Z 27003KT 10SM CLR 16/14 A2986 RMK AO2 SLP111 T01610144
Conditions at: KSBA (SANTA BARBARA , CA, US) observed 0353 UTC 18 August 2019
Temperature: 16.1°C (61°F)
Dewpoint: 14.4°C (58°F) [RH = 90%]
Pressure (altimeter): 29.86 inches Hg (1011.3 mb)
[Sea-level pressure: 1011.1 mb]
Winds: from the W (270 degrees) at 3 MPH (3 knots; 1.5 m/s)
Visibility: 10 or more miles (16+ km)
Ceiling: at least 12,000 feet AGL
Clouds: sky clear below 12,000 feet AGL
Weather: no significant weather observed at this time

METAR text: KSBA 180253Z 26008KT 10SM CLR 17/14 A2984 RMK AO2 SLP105 T01720139 55003
Conditions at: KSBA (SANTA BARBARA , CA, US) observed 0253 UTC 18 August 2019
Temperature: 17.2°C (63°F)
Dewpoint: 13.9°C (57°F) [RH = 81%]
Pressure (altimeter): 29.84 inches Hg (1010.6 mb)
[Sea-level pressure: 1010.5 mb]
Winds: from the W (260 degrees) at 9 MPH (8 knots; 4.1 m/s)
Visibility: 10 or more miles (16+ km)
Ceiling: at least 12,000 feet AGL
Clouds: sky clear below 12,000 feet AGL
Weather: no significant weather observed at this time

METAR text: KSBA 180153Z 27008KT 10SM CLR 18/14 A2983 RMK AO2 SLP101 T01830139
Conditions at: KSBA (SANTA BARBARA , CA, US) observed 0153 UTC 18 August 2019
Temperature: 18.3°C (65°F)
Dewpoint: 13.9°C (57°F) [RH = 76%]
Pressure (altimeter): 29.83 inches Hg (1010.2 mb)
[Sea-level pressure: 1010.1 mb]
Winds: from the W (270 degrees) at 9 MPH (8 knots; 4.1 m/s)
Visibility: 10 or more miles (16+ km)
Ceiling: at least 12,000 feet AGL
Clouds: sky clear below 12,000 feet AGL
Weather: no significant weather observed at this time

METAR text: KSBA 180053Z 26011KT 10SM CLR 19/14 A2984 RMK AO2 SLP106 T01940139
Conditions at: KSBA (SANTA BARBARA , CA, US) observed 0053 UTC 18 August 2019
Temperature: 19.4°C (67°F)
Dewpoint: 13.9°C (57°F) [RH = 71%]
Pressure (altimeter): 29.84 inches Hg (1010.6 mb)
[Sea-level pressure: 1010.6 mb]
Winds: from the W (260 degrees) at 13 MPH (11 knots; 5.7 m/s)
Visibility: 10 or more miles (16+ km)
Ceiling: at least 12,000 feet AGL
Clouds: sky clear below 12,000 feet AGL
Weather: no significant weather observed at this time

METAR text: KSBA 172353Z 24007KT 10SM CLR 21/14 A2985 RMK AO2 SLP109 T02060144 10217 20183 58020
Conditions at: KSBA (SANTA BARBARA , CA, US) observed 2353 UTC 17 August 2019
Temperature: 20.6°C (69°F)
Dewpoint: 14.4°C (58°F) [RH = 68%]
Pressure (altimeter): 29.85 inches Hg (1010.9 mb)
[Sea-level pressure: 1010.9 mb]
Winds: from the WSW (240 degrees) at 8 MPH (7 knots; 3.6 m/s)
Visibility: 10 or more miles (16+ km)
Ceiling: at least 12,000 feet AGL
Clouds: sky clear below 12,000 feet AGL
Weather: no significant weather observed at this time

METAR text: KSBA 172253Z 25007KT 10SM CLR 21/14 A2988 RMK AO2 SLP117 T02060144
Conditions at: KSBA (SANTA BARBARA , CA, US) observed 2253 UTC 17 August 2019
Temperature: 20.6°C (69°F)
Dewpoint: 14.4°C (58°F) [RH = 68%]
Pressure (altimeter): 29.88 inches Hg (1011.9 mb)
[Sea-level pressure: 1011.7 mb]
Winds: from the WSW (250 degrees) at 8 MPH (7 knots; 3.6 m/s)
Visibility: 10 or more miles (16+ km)
Ceiling: at least 12,000 feet AGL
Clouds: sky clear below 12,000 feet AGL
Weather: no significant weather observed at this time

METAR text: KSBA 172153Z 26008KT 10SM SCT024 21/14 A2989 RMK AO2 SLP123 T02110144
Conditions at: KSBA (SANTA BARBARA , CA, US) observed 2153 UTC 17 August 2019
Temperature: 21.1°C (70°F)
Dewpoint: 14.4°C (58°F) [RH = 66%]
Pressure (altimeter): 29.89 inches Hg (1012.3 mb)
[Sea-level pressure: 1012.3 mb]
Winds: from the W (260 degrees) at 9 MPH (8 knots; 4.1 m/s)
Visibility: 10 or more miles (16+ km)
Ceiling: at least 12,000 feet AGL
Clouds: scattered clouds at 2400 feet AGL
Weather: no significant weather observed at this time

METAR text: KSBA 172053Z 25008KT 10SM BKN024 21/14 A2991 RMK AO2 SLP129 T02060144 56009
Conditions at: KSBA (SANTA BARBARA , CA, US) observed 2053 UTC 17 August 2019
Temperature: 20.6°C (69°F)
Dewpoint: 14.4°C (58°F) [RH = 68%]
Pressure (altimeter): 29.91 inches Hg (1013.0 mb)
[Sea-level pressure: 1012.9 mb]
Winds: from the WSW (250 degrees) at 9 MPH (8 knots; 4.1 m/s)
Visibility: 10 or more miles (16+ km)
Ceiling: 2400 feet AGL
Clouds: broken clouds at 2400 feet AGL
Weather: no significant weather observed at this time

METAR text: KSBA 171953Z 23006KT 10SM BKN013 OVC021 20/14 A2992 RMK AO2 SLP130 T02000144
Conditions at: KSBA (SANTA BARBARA , CA, US) observed 1953 UTC 17 August 2019
Temperature: 20.0°C (68°F)
Dewpoint: 14.4°C (58°F) [RH = 70%]
Pressure (altimeter): 29.92 inches Hg (1013.3 mb)
[Sea-level pressure: 1013.0 mb]
Winds: from the SW (230 degrees) at 7 MPH (6 knots; 3.1 m/s)
Visibility: 10 or more miles (16+ km)
Ceiling: 1300 feet AGL
Clouds: broken clouds at 1300 feet AGL
overcast cloud deck at 2100 feet AGL
Weather: no significant weather observed at this time

METAR text: KSBA 171853Z VRB04KT 10SM BKN013 OVC021 19/14 A2993 RMK AO2 SLP135 T01890144
Conditions at: KSBA (SANTA BARBARA , CA, US) observed 1853 UTC 17 August 2019
Temperature: 18.9°C (66°F)
Dewpoint: 14.4°C (58°F) [RH = 75%]
Pressure (altimeter): 29.93 inches Hg (1013.6 mb)
[Sea-level pressure: 1013.5 mb]
Winds: variable direction winds at 5 MPH (4 knots; 2.1 m/s)
Visibility: 10 or more miles (16+ km)
Ceiling: 1300 feet AGL
Clouds: broken clouds at 1300 feet AGL
overcast cloud deck at 2100 feet AGL
Weather: no significant weather observed at this time

METAR text: KSBA 171753Z 20004KT 10SM BKN013 OVC021 18/14 A2994 RMK AO2 SLP138 T01830144 10189 20167 51008
Conditions at: KSBA (SANTA BARBARA , CA, US) observed 1753 UTC 17 August 2019
Temperature: 18.3°C (65°F)
Dewpoint: 14.4°C (58°F) [RH = 78%]
Pressure (altimeter): 29.94 inches Hg (1014.0 mb)
[Sea-level pressure: 1013.8 mb]
Winds: from the SSW (200 degrees) at 5 MPH (4 knots; 2.1 m/s)
Visibility: 10 or more miles (16+ km)
Ceiling: 1300 feet AGL
Clouds: broken clouds at 1300 feet AGL
overcast cloud deck at 2100 feet AGL
Weather: no significant weather observed at this time

METAR text: KSBA 171653Z 17005KT 10SM OVC010 17/14 A2993 RMK AO2 SLP135 T01720144
Conditions at: KSBA (SANTA BARBARA , CA, US) observed 1653 UTC 17 August 2019
Temperature: 17.2°C (63°F)
Dewpoint: 14.4°C (58°F) [RH = 84%]
Pressure (altimeter): 29.93 inches Hg (1013.6 mb)
[Sea-level pressure: 1013.5 mb]
Winds: from the S (170 degrees) at 6 MPH (5 knots; 2.6 m/s)
Visibility: 10 or more miles (16+ km)
Ceiling: 1000 feet AGL
Clouds: overcast cloud deck at 1000 feet AGL
Weather: no significant weather observed at this time

METAR text: KSBA 171553Z 15005KT 10SM OVC010 17/14 A2992 RMK AO2 SLP133 T01670144
Conditions at: KSBA (SANTA BARBARA , CA, US) observed 1553 UTC 17 August 2019
Temperature: 16.7°C (62°F)
Dewpoint: 14.4°C (58°F) [RH = 86%]
Pressure (altimeter): 29.92 inches Hg (1013.3 mb)
[Sea-level pressure: 1013.3 mb]
Winds: from the SSE (150 degrees) at 6 MPH (5 knots; 2.6 m/s)
Visibility: 10 or more miles (16+ km)
Ceiling: 1000 feet AGL
Clouds: overcast cloud deck at 1000 feet AGL
Weather: no significant weather observed at this time

METAR text: KSBA 171453Z 16006KT 6SM HZ OVC010 17/14 A2991 RMK AO2 SLP129 T01720144 53007
Conditions at: KSBA (SANTA BARBARA , CA, US) observed 1453 UTC 17 August 2019
Temperature: 17.2°C (63°F)
Dewpoint: 14.4°C (58°F) [RH = 84%]
Pressure (altimeter): 29.91 inches Hg (1013.0 mb)
[Sea-level pressure: 1012.9 mb]
Winds: from the SSE (160 degrees) at 7 MPH (6 knots; 3.1 m/s)
Visibility: 6 miles (10 km)
Ceiling: 1000 feet AGL
Clouds: overcast cloud deck at 1000 feet AGL
Weather: HZ  (haze)

METAR text: KSBA 171401Z 15005KT 6SM HZ OVC010 17/14 A2991 RMK AO2 T01720144
Conditions at: KSBA (SANTA BARBARA , CA, US) observed 1401 UTC 17 August 2019
Temperature: 17.2°C (63°F)
Dewpoint: 14.4°C (58°F) [RH = 84%]
Pressure (altimeter): 29.91 inches Hg (1013.0 mb)
Winds: from the SSE (150 degrees) at 6 MPH (5 knots; 2.6 m/s)
Visibility: 6 miles (10 km)
Ceiling: 1000 feet AGL
Clouds: overcast cloud deck at 1000 feet AGL
Weather: HZ  (haze)

METAR text: KSBA 171353Z 15006KT 6SM HZ OVC015 17/14 A2991 RMK AO2 SLP127 T01720144
Conditions at: KSBA (SANTA BARBARA , CA, US) observed 1353 UTC 17 August 2019
Temperature: 17.2°C (63°F)
Dewpoint: 14.4°C (58°F) [RH = 84%]
Pressure (altimeter): 29.91 inches Hg (1013.0 mb)
[Sea-level pressure: 1012.7 mb]
Winds: from the SSE (150 degrees) at 7 MPH (6 knots; 3.1 m/s)
Visibility: 6 miles (10 km)
Ceiling: 1500 feet AGL
Clouds: overcast cloud deck at 1500 feet AGL
Weather: HZ  (haze)

METAR text: KSBA 171321Z 14006KT 6SM BR OVC015 17/15 A2990 RMK AO2 T01720150
Conditions at: KSBA (SANTA BARBARA , CA, US) observed 1321 UTC 17 August 2019
Temperature: 17.2°C (63°F)
Dewpoint: 15.0°C (59°F) [RH = 87%]
Pressure (altimeter): 29.90 inches Hg (1012.6 mb)
Winds: from the SE (140 degrees) at 7 MPH (6 knots; 3.1 m/s)
Visibility: 6 miles (10 km)
Ceiling: 1500 feet AGL
Clouds: overcast cloud deck at 1500 feet AGL
Weather: BR  (mist)

Forecast for: KSBA (SANTA BARBARA , CA, US)
Text: KSBA 182334Z 1900/1924 25009KT P6SM SKC
Forecast period: 0000 to 0400 UTC 19 August 2019
Forecast type: FROM: standard forecast or significant change
Winds: from the WSW (250 degrees) at 10 MPH (9 knots; 4.6 m/s)
Visibility: 6 or more miles 10+ km)
Clouds: clear skies
Weather: no significant weather forecast for this period
Text: FM190400 VRB03KT P6SM FEW008
Forecast period: 0400 to 0800 UTC 19 August 2019
Forecast type: FROM: standard forecast or significant change
Winds: variable direction winds at 3 MPH (3 knots; 1.5 m/s)
Visibility: 6 or more miles 10+ km)
Ceiling: at least 12,000 feet AGL
Clouds: few clouds at 800 feet AGL
Weather: no significant weather forecast for this period
Text: FM190800 11003KT P6SM OVC007
Forecast period: 0800 to 1300 UTC 19 August 2019
Forecast type: FROM: standard forecast or significant change
Winds: from the ESE (110 degrees) at 3 MPH (3 knots; 1.5 m/s)
Visibility: 6 or more miles 10+ km)
Ceiling: 700 feet AGL
Clouds: overcast cloud deck at 700 feet AGL
Weather: no significant weather forecast for this period
Text: FM191300 VRB03KT P6SM SCT007 OVC012
Forecast period: 1300 to 1700 UTC 19 August 2019
Forecast type: FROM: standard forecast or significant change
Winds: variable direction winds at 3 MPH (3 knots; 1.5 m/s)
Visibility: 6 or more miles 10+ km)
Ceiling: 1200 feet AGL
Clouds: scattered clouds at 700 feet AGL
overcast cloud deck at 1200 feet AGL
Weather: no significant weather forecast for this period
Text: FM191700 17006KT P6SM BKN017
Forecast period: 1700 to 1900 UTC 19 August 2019
Forecast type: FROM: standard forecast or significant change
Winds: from the S (170 degrees) at 7 MPH (6 knots; 3.1 m/s)
Visibility: 6 or more miles 10+ km)
Ceiling: 1700 feet AGL
Clouds: broken clouds at 1700 feet AGL
Weather: no significant weather forecast for this period
Text: FM191900 23008KT P6SM FEW017
Forecast period: 1900 UTC 19 August 2019 to 0000 UTC 20 August 2019
Forecast type: FROM: standard forecast or significant change
Winds: from the SW (230 degrees) at 9 MPH (8 knots; 4.1 m/s)
Visibility: 6 or more miles 10+ km)
Ceiling: at least 12,000 feet AGL
Clouds: few clouds at 1700 feet AGL
Weather: no significant weather forecast for this period